Details for Ryanair at LIME




Go Back


Latest METAR
Local Time

LIME 220920Z VRB02KT CAVOK 25/17 Q1017 NOSIG
22/09/2018, 11:32:22

Description
Results
Ryanair Logo
Number of Pilots based at LIME
0 Pilots Based here
Number of Ryanair Flights Departed from LIME
3 Flights Departed
Number of Ryanair Flights Arrived at LIME
4 Flights Arrived
Number of Ryanair Schedules Departing from LIME
229 Schedules
Number of Ryanair Schedules Arriving at LIME
234 Schedules
Number of Ryanair Schedules Departing from LIME availible today
90 Schedules Today
Number of Ryanair Schedules Arriving at LIME availible today
91 Schedules Today
Average Landing Rate at LIME
-230 fpm
Ryanair Average Landing Rate at LIME
-151 fpm
Total Fuel Purchased at LIME by Ryanair
12,519.60 kgs / 27,600.71 lbs

Pilots Based at LIME


Pilot ID
Pilot Name
Pilot Rank
No. of Flights
No. of Flying Hours
There are no pilots assigned to this hub!   Will you be the first?
Content